Time;durP1;ratioP1;P1;durP2;ratioP2;P2;SDS_P1;SDS_P2;PMS_P1;PMS_P2;Temp;Humidity;BMP_temperature;BMP_pressure;BME280_temperature;BME280_humidity;BME280_pressure;Samples;Min_cycle;Max_cycle;Signal;HPM_P1;HPM_P2
2023/01/23 00:01:32;;;;;;;7.50;4.37;;;3.60;99.90;;;;;;5075653;28;21025;-71
2023/01/23 00:03:59;;;;;;;8.93;4.17;;;3.70;99.90;;;;;;5075412;28;20550;-70
2023/01/23 00:06:28;;;;;;;9.67;5.00;;;3.80;99.90;;;;;;5075457;28;20505;-70
2023/01/23 00:08:56;;;;;;;13.80;5.60;;;3.80;99.90;;;;;;5075417;28;20795;-70
2023/01/23 00:11:25;;;;;;;10.60;5.00;;;3.80;99.90;;;;;;5075057;28;20413;-70
2023/01/23 00:13:52;;;;;;;10.90;7.00;;;3.70;99.90;;;;;;5075091;28;20480;-70
2023/01/23 00:16:22;;;;;;;8.50;5.40;;;3.60;99.90;;;;;;5075535;28;20418;-71
2023/01/23 00:18:50;;;;;;;7.00;4.10;;;3.60;99.90;;;;;;5075644;28;20473;-71
2023/01/23 00:21:20;;;;;;;12.63;5.10;;;3.60;99.90;;;;;;5075334;28;20792;-71
2023/01/23 00:23:50;;;;;;;8.87;5.50;;;3.60;99.90;;;;;;5075730;28;20451;-71
2023/01/23 00:26:19;;;;;;;11.73;7.33;;;3.80;99.90;;;;;;5075426;28;20521;-70
2023/01/23 00:28:47;;;;;;;9.90;4.87;;;3.70;99.90;;;;;;5076060;28;20542;-71
2023/01/23 00:31:15;;;;;;;13.40;5.43;;;3.70;99.90;;;;;;5076643;28;20459;-71
2023/01/23 00:33:44;;;;;;;8.60;4.93;;;3.80;99.90;;;;;;5075005;28;20486;-72
2023/01/23 00:36:13;;;;;;;8.67;5.93;;;3.70;99.90;;;;;;5075291;28;20429;-71
2023/01/23 00:38:40;;;;;;;6.27;4.90;;;3.70;99.90;;;;;;5074946;28;20476;-73
2023/01/23 00:41:08;;;;;;;6.97;4.97;;;3.70;99.90;;;;;;5074887;28;20426;-72
2023/01/23 00:43:35;;;;;;;13.90;8.33;;;3.70;99.90;;;;;;5074878;28;20520;-71
2023/01/23 00:46:02;;;;;;;10.37;5.20;;;3.60;99.90;;;;;;5074877;28;20508;-72
2023/01/23 00:48:29;;;;;;;11.50;5.93;;;3.60;99.90;;;;;;5074570;28;21025;-72
2023/01/23 00:50:56;;;;;;;7.50;4.70;;;3.70;99.90;;;;;;5074702;28;20456;-72
2023/01/23 00:53:24;;;;;;;8.53;4.97;;;3.70;99.90;;;;;;5074520;28;20428;-72
2023/01/23 00:55:52;;;;;;;12.20;6.37;;;3.70;99.90;;;;;;5074471;28;20930;-72
2023/01/23 00:58:20;;;;;;;7.30;4.73;;;3.70;99.90;;;;;;5074616;28;20981;-72
2023/01/23 01:00:47;;;;;;;10.23;5.00;;;3.60;99.90;;;;;;5073171;28;20836;-72
2023/01/23 01:03:14;;;;;;;14.53;5.43;;;3.60;99.90;;;;;;5074423;28;20520;-72
2023/01/23 01:05:41;;;;;;;12.30;4.63;;;3.70;99.90;;;;;;5074829;28;20443;-72
2023/01/23 01:08:08;;;;;;;10.53;5.20;;;3.60;99.90;;;;;;5074677;28;20942;-72
2023/01/23 01:10:38;;;;;;;8.37;4.43;;;3.70;99.90;;;;;;5074111;28;20847;-72
2023/01/23 01:13:06;;;;;;;11.03;7.20;;;3.70;99.90;;;;;;5074365;28;20464;-71
2023/01/23 01:15:34;;;;;;;10.33;4.80;;;3.60;99.90;;;;;;5074150;28;20478;-71
2023/01/23 01:18:03;;;;;;;15.20;6.87;;;3.60;99.90;;;;;;5074268;28;20518;-72
2023/01/23 01:20:30;;;;;;;11.53;6.57;;;3.60;99.90;;;;;;5073154;28;20450;-72
2023/01/23 01:22:59;;;;;;;9.97;6.00;;;3.60;99.90;;;;;;5073885;28;20455;-72
2023/01/23 01:25:30;;;;;;;9.73;6.67;;;3.60;99.90;;;;;;5073802;28;20445;-71
2023/01/23 01:27:57;;;;;;;8.03;5.67;;;3.60;99.90;;;;;;5074002;28;20434;-71
2023/01/23 01:30:25;;;;;;;13.70;7.23;;;3.60;99.90;;;;;;5073726;28;20563;-72
2023/01/23 01:32:55;;;;;;;7.10;4.13;;;3.50;99.90;;;;;;5073915;28;20448;-72
2023/01/23 01:35:24;;;;;;;8.50;4.53;;;3.70;99.90;;;;;;5073641;28;21003;-71
2023/01/23 01:37:51;;;;;;;7.30;4.50;;;3.70;99.90;;;;;;5073330;28;20533;-74
2023/01/23 01:40:21;;;;;;;10.00;5.93;;;3.70;99.90;;;;;;5073759;28;20536;-72
2023/01/23 01:42:52;;;;;;;11.70;5.23;;;3.60;99.90;;;;;;5073018;28;20447;-71
2023/01/23 01:46:15;;;;;;;9.40;5.00;;;3.60;99.90;;;;;;5073620;28;20869;-72
2023/01/23 01:48:54;;;;;;;9.23;5.23;;;3.60;99.90;;;;;;5011601;28;20525;-71
2023/01/23 01:51:28;;;;;;;5.90;4.17;;;3.60;99.90;;;;;;5065611;28;20545;-71
2023/01/23 01:54:01;;;;;;;17.03;5.77;;;3.50;99.90;;;;;;5074579;28;20406;-71
2023/01/23 01:56:30;;;;;;;8.47;4.17;;;3.50;99.90;;;;;;5073839;28;20486;-71
2023/01/23 01:58:58;;;;;;;9.30;4.23;;;3.50;99.90;;;;;;5073176;28;20779;-71
2023/01/23 02:01:26;;;;;;;9.73;5.03;;;3.50;99.90;;;;;;5073769;28;20503;-71
2023/01/23 02:03:55;;;;;;;11.50;5.77;;;3.50;99.90;;;;;;5073257;28;20434;-71
2023/01/23 02:06:22;;;;;;;9.40;4.13;;;3.50;99.90;;;;;;5072737;28;20430;-71
2023/01/23 02:08:56;;;;;;;17.10;6.93;;;3.60;99.90;;;;;;5072926;28;20474;-72
2023/01/23 02:11:23;;;;;;;8.50;4.70;;;3.60;99.90;;;;;;5072913;28;20944;-72
2023/01/23 02:13:54;;;;;;;9.90;6.30;;;3.70;99.90;;;;;;5073096;28;20441;-71
2023/01/23 02:16:24;;;;;;;6.80;5.30;;;3.50;99.90;;;;;;5073504;28;20802;-71
2023/01/23 02:18:58;;;;;;;7.40;4.00;;;3.50;99.90;;;;;;5072877;28;20471;-71
2023/01/23 02:21:25;;;;;;;7.87;5.07;;;3.40;99.90;;;;;;5073181;28;20483;-71
2023/01/23 02:24:05;;;;;;;6.67;5.90;;;3.30;99.90;;;;;;5072834;28;20471;-71
2023/01/23 02:26:37;;;;;;;11.10;5.67;;;3.40;99.90;;;;;;5072519;28;20444;-71
2023/01/23 02:29:05;;;;;;;11.13;6.37;;;3.50;99.90;;;;;;5036912;28;20450;-71
2023/01/23 02:31:32;;;;;;;4.40;2.83;;;3.30;99.90;;;;;;5072080;28;20454;-71
2023/01/23 02:34:00;;;;;;;10.40;4.87;;;3.30;99.90;;;;;;5072847;28;20469;-71
2023/01/23 02:36:30;;;;;;;16.33;6.53;;;3.40;99.90;;;;;;5072018;28;20478;-70
2023/01/23 02:39:04;;;;;;;9.60;3.83;;;3.50;99.90;;;;;;5071936;28;20448;-70
2023/01/23 02:41:36;;;;;;;6.90;4.83;;;3.40;99.90;;;;;;5072250;28;20778;-70
2023/01/23 02:44:08;;;;;;;7.83;4.87;;;3.30;99.90;;;;;;5072374;28;20552;-70
2023/01/23 02:46:35;;;;;;;12.90;7.80;;;3.30;99.90;;;;;;5072280;28;20404;-71
2023/01/23 02:49:02;;;;;;;15.23;6.97;;;3.20;99.90;;;;;;5072203;28;20534;-71
2023/01/23 02:51:29;;;;;;;10.57;5.03;;;3.40;99.90;;;;;;5072003;28;20475;-70
2023/01/23 02:53:56;;;;;;;9.37;5.53;;;3.40;99.90;;;;;;5072172;28;20421;-70
2023/01/23 02:56:23;;;;;;;6.17;3.43;;;3.30;99.90;;;;;;5071994;28;20406;-70
2023/01/23 03:01:36;;;;;;;13.53;6.47;;;3.10;99.90;;;;;;5072089;28;20398;-71
2023/01/23 03:04:05;;;;;;;7.37;3.70;;;3.10;99.90;;;;;;5072006;28;20898;-71
2023/01/23 03:06:36;;;;;;;9.07;4.80;;;3.20;99.90;;;;;;5071979;28;20391;-71
2023/01/23 03:09:11;;;;;;;5.90;4.03;;;3.10;99.90;;;;;;5072066;28;20509;-71
2023/01/23 03:11:40;;;;;;;9.30;4.87;;;3.10;99.90;;;;;;5072028;28;20471;-71
2023/01/23 03:14:11;;;;;;;11.73;5.30;;;3.10;99.90;;;;;;5072182;28;20464;-71
2023/01/23 03:16:40;;;;;;;6.67;4.20;;;3.20;99.90;;;;;;5072773;28;20427;-71
2023/01/23 03:19:08;;;;;;;13.73;4.70;;;3.20;99.90;;;;;;5071970;28;20452;-71
2023/01/23 03:21:36;;;;;;;13.40;6.63;;;3.20;99.90;;;;;;5071578;28;20486;-71
2023/01/23 03:24:05;;;;;;;18.20;7.57;;;3.10;99.90;;;;;;5071994;28;20449;-71
2023/01/23 03:26:31;;;;;;;8.30;4.40;;;3.10;99.90;;;;;;5071657;28;20517;-71
2023/01/23 03:31:46;;;;;;;5.97;5.37;;;3.20;99.90;;;;;;5071257;28;20457;-71
2023/01/23 03:34:13;;;;;;;13.60;5.27;;;3.30;99.90;;;;;;5071557;28;20442;-71
2023/01/23 03:36:40;;;;;;;8.27;5.77;;;3.30;99.90;;;;;;5071649;28;20455;-71
2023/01/23 03:41:52;;;;;;;12.23;4.67;;;3.30;99.90;;;;;;5071546;28;20469;-71
2023/01/23 03:44:20;;;;;;;14.67;5.33;;;3.50;99.90;;;;;;5071084;28;20444;-71
2023/01/23 03:46:52;;;;;;;10.27;6.40;;;3.40;99.90;;;;;;5071584;28;20448;-71
2023/01/23 03:49:20;;;;;;;11.10;4.40;;;3.30;99.90;;;;;;5072560;28;20464;-71
2023/01/23 03:51:47;;;;;;;11.27;4.60;;;3.30;99.90;;;;;;5071584;28;20486;-71
2023/01/23 03:54:14;;;;;;;10.93;5.37;;;3.40;99.90;;;;;;5071651;28;20575;-71
2023/01/23 03:56:41;;;;;;;12.03;5.57;;;3.50;99.90;;;;;;5071583;28;20968;-71
2023/01/23 03:59:08;;;;;;;12.87;7.70;;;3.60;99.90;;;;;;5071126;28;20533;-71
2023/01/23 04:01:36;;;;;;;13.43;6.17;;;3.60;99.90;;;;;;5071628;28;20502;-71
2023/01/23 04:04:05;;;;;;;13.40;7.77;;;3.60;99.90;;;;;;5070946;28;20451;-70
2023/01/23 04:06:32;;;;;;;12.10;6.20;;;3.50;99.90;;;;;;5071373;28;20458;-70
2023/01/23 04:08:59;;;;;;;13.33;7.57;;;3.50;99.90;;;;;;5074482;28;20905;-70
2023/01/23 04:11:29;;;;;;;14.50;6.63;;;3.60;99.90;;;;;;5074558;28;20559;-70
2023/01/23 04:13:56;;;;;;;11.37;6.43;;;3.70;99.90;;;;;;5074654;28;20429;-69
2023/01/23 04:16:23;;;;;;;16.67;5.73;;;3.80;99.90;;;;;;5074715;28;20452;-70
2023/01/23 04:18:51;;;;;;;5.83;4.27;;;3.70;99.90;;;;;;5074213;28;20821;-70
2023/01/23 04:21:19;;;;;;;9.60;3.83;;;3.70;99.90;;;;;;5074300;28;20944;-70
2023/01/23 04:23:46;;;;;;;12.87;7.63;;;3.50;99.90;;;;;;5074697;28;20455;-71
2023/01/23 04:26:13;;;;;;;9.87;4.37;;;3.60;99.90;;;;;;5074550;28;20841;-71
2023/01/23 04:28:40;;;;;;;13.30;8.07;;;3.70;99.90;;;;;;5074971;28;20464;-70
2023/01/23 04:31:08;;;;;;;10.77;6.37;;;3.70;99.90;;;;;;5074576;28;20495;-70
2023/01/23 04:33:35;;;;;;;11.97;6.10;;;3.70;99.90;;;;;;5074597;28;20435;-70
2023/01/23 04:36:04;;;;;;;12.10;5.00;;;3.70;99.90;;;;;;5075325;28;20522;-71
2023/01/23 04:38:33;;;;;;;12.27;5.77;;;3.70;99.90;;;;;;5078567;28;20451;-70
2023/01/23 04:41:00;;;;;;;12.70;6.00;;;3.80;99.90;;;;;;5074886;28;20931;-70
2023/01/23 04:43:27;;;;;;;12.97;6.47;;;3.70;99.90;;;;;;5074684;28;20533;-70
2023/01/23 04:45:55;;;;;;;17.10;6.63;;;3.60;99.90;;;;;;5074618;28;20422;-71
2023/01/23 04:48:23;;;;;;;11.60;7.10;;;3.60;99.90;;;;;;5074080;28;20998;-70
2023/01/23 04:50:51;;;;;;;17.73;6.80;;;3.60;99.90;;;;;;5074466;28;20489;-70
2023/01/23 04:53:18;;;;;;;7.20;5.43;;;3.60;99.90;;;;;;5074431;28;20422;-71
2023/01/23 04:55:48;;;;;;;8.80;5.33;;;3.60;99.90;;;;;;5074021;28;20448;-70
2023/01/23 04:58:16;;;;;;;10.00;5.43;;;3.60;99.90;;;;;;5074344;28;20477;-70
2023/01/23 05:00:43;;;;;;;15.43;7.80;;;3.50;99.90;;;;;;5073981;28;20921;-70
2023/01/23 05:03:10;;;;;;;8.23;5.20;;;3.50;99.90;;;;;;5073819;28;20434;-70
2023/01/23 05:05:37;;;;;;;10.13;5.53;;;3.50;99.90;;;;;;5073763;28;20443;-70
2023/01/23 05:08:04;;;;;;;9.87;4.33;;;3.50;99.90;;;;;;5073296;28;20521;-70
2023/01/23 05:10:31;;;;;;;13.60;5.67;;;3.50;99.90;;;;;;5073368;28;20514;-70
2023/01/23 05:12:59;;;;;;;9.07;5.03;;;3.50;99.90;;;;;;5073588;28;20433;-70
2023/01/23 05:15:27;;;;;;;11.73;5.67;;;3.40;99.90;;;;;;5073240;28;20471;-70
2023/01/23 05:17:54;;;;;;;18.00;4.60;;;3.40;99.90;;;;;;5073147;28;20483;-70
2023/01/23 05:20:22;;;;;;;11.13;5.90;;;3.40;99.90;;;;;;5073329;28;20422;-70
2023/01/23 05:22:52;;;;;;;11.37;5.13;;;3.50;99.90;;;;;;5073028;28;20455;-70
2023/01/23 05:25:20;;;;;;;9.07;5.80;;;3.60;99.90;;;;;;5072991;28;20513;-70
2023/01/23 05:27:47;;;;;;;12.00;7.60;;;3.70;99.90;;;;;;5073183;28;20478;-70
2023/01/23 05:30:16;;;;;;;8.07;5.60;;;3.60;99.90;;;;;;5073804;28;20552;-71
2023/01/23 05:32:44;;;;;;;18.97;8.33;;;3.70;99.90;;;;;;5073403;28;20489;-71
2023/01/23 05:35:11;;;;;;;8.67;5.70;;;3.70;99.90;;;;;;5073035;28;20884;-71
2023/01/23 05:37:38;;;;;;;7.37;4.47;;;3.70;99.90;;;;;;5072395;28;20524;-71
2023/01/23 05:40:07;;;;;;;7.60;5.30;;;3.70;99.90;;;;;;5071037;28;20423;-71
2023/01/23 05:42:34;;;;;;;12.10;6.90;;;3.70;99.90;;;;;;5072424;28;20430;-70
2023/01/23 05:45:01;;;;;;;8.07;4.57;;;3.70;99.90;;;;;;5072788;28;20769;-70
2023/01/23 05:47:30;;;;;;;11.60;6.17;;;3.70;99.90;;;;;;5072373;28;20555;-70
2023/01/23 05:49:57;;;;;;;13.17;6.00;;;3.70;99.90;;;;;;5072389;28;21037;-72
2023/01/23 05:52:24;;;;;;;11.67;6.77;;;3.60;99.90;;;;;;5071947;28;20452;-71
2023/01/23 05:54:51;;;;;;;13.40;4.43;;;3.70;99.90;;;;;;5072427;28;20466;-70
2023/01/23 05:57:20;;;;;;;13.10;8.00;;;3.70;99.90;;;;;;5075326;28;20546;-71
2023/01/23 05:59:47;;;;;;;12.93;5.03;;;3.70;99.90;;;;;;5072880;28;20449;-71
2023/01/23 06:02:14;;;;;;;7.50;4.90;;;3.80;99.90;;;;;;5072318;28;20875;-70
2023/01/23 06:04:43;;;;;;;12.47;4.30;;;3.70;99.90;;;;;;5072372;28;20407;-71
2023/01/23 06:07:13;;;;;;;8.63;4.97;;;3.70;99.90;;;;;;5071620;28;20516;-70
2023/01/23 06:09:40;;;;;;;10.73;6.77;;;3.60;99.90;;;;;;5072713;28;20889;-71
2023/01/23 06:12:08;;;;;;;13.30;7.57;;;3.70;99.90;;;;;;5072297;28;20547;-70
2023/01/23 06:14:35;;;;;;;5.23;3.90;;;3.70;99.90;;;;;;5072046;28;20773;-71
2023/01/23 06:17:02;;;;;;;25.87;11.87;;;3.70;99.90;;;;;;5071908;28;20896;-71
2023/01/23 06:19:29;;;;;;;14.60;8.10;;;3.60;99.90;;;;;;5071902;28;20858;-71
2023/01/23 06:21:58;;;;;;;15.10;7.40;;;3.50;99.90;;;;;;5072272;28;20947;-71
2023/01/23 06:24:25;;;;;;;14.87;6.90;;;3.60;99.90;;;;;;5071906;28;20472;-70
2023/01/23 06:26:52;;;;;;;14.43;6.40;;;3.60;99.90;;;;;;5072078;28;20810;-70
2023/01/23 06:29:19;;;;;;;8.37;4.93;;;3.60;99.90;;;;;;5070948;28;20526;-71
2023/01/23 06:31:46;;;;;;;7.33;6.33;;;3.60;99.90;;;;;;5071833;28;20482;-71
2023/01/23 06:34:13;;;;;;;9.60;5.60;;;3.60;99.90;;;;;;5071773;28;20443;-72
2023/01/23 06:36:40;;;;;;;10.70;6.00;;;3.60;99.90;;;;;;5071462;28;20441;-71
2023/01/23 06:39:12;;;;;;;10.50;4.53;;;3.60;99.90;;;;;;5072273;28;20516;-71
2023/01/23 06:41:39;;;;;;;11.77;6.43;;;3.40;99.90;;;;;;5071321;28;20444;-71
2023/01/23 06:44:06;;;;;;;12.33;6.73;;;3.50;99.90;;;;;;5071702;28;20515;-71
2023/01/23 06:46:33;;;;;;;13.07;6.87;;;3.60;99.90;;;;;;5071404;28;20748;-71
2023/01/23 06:49:00;;;;;;;19.40;5.53;;;3.50;99.90;;;;;;5071755;28;20454;-70
2023/01/23 06:51:27;;;;;;;13.03;7.07;;;3.60;99.90;;;;;;5071301;28;20483;-70
2023/01/23 06:53:55;;;;;;;7.83;4.90;;;3.60;99.90;;;;;;5071325;28;20443;-71
2023/01/23 06:56:23;;;;;;;7.60;4.17;;;3.60;99.90;;;;;;5071051;28;20533;-71
2023/01/23 06:58:50;;;;;;;15.63;6.37;;;3.60;99.90;;;;;;5071960;28;20445;-71
2023/01/23 07:01:19;;;;;;;4.80;2.87;;;3.60;99.90;;;;;;5071476;28;20577;-71
2023/01/23 07:03:46;;;;;;;8.43;3.47;;;3.60;99.90;;;;;;5070938;28;20480;-71
2023/01/23 07:06:14;;;;;;;12.47;5.90;;;3.40;99.90;;;;;;5071413;28;20453;-71
2023/01/23 07:08:42;;;;;;;7.10;4.03;;;3.40;99.90;;;;;;5071289;28;20563;-71
2023/01/23 07:11:10;;;;;;;12.03;4.90;;;3.50;99.90;;;;;;5071135;28;20475;-71
2023/01/23 07:13:38;;;;;;;10.33;6.67;;;3.60;99.90;;;;;;5071601;28;20456;-71
2023/01/23 07:16:06;;;;;;;14.47;5.93;;;3.60;99.90;;;;;;5071499;28;20414;-70
2023/01/23 07:18:35;;;;;;;12.93;4.77;;;3.80;99.90;;;;;;5073782;28;20925;-73
2023/01/23 07:21:05;;;;;;;13.33;5.13;;;3.80;99.90;;;;;;5071726;28;20422;-70
2023/01/23 07:23:32;;;;;;;13.70;6.00;;;3.80;99.90;;;;;;5071354;28;20463;-70
2023/01/23 07:26:00;;;;;;;7.83;4.37;;;3.80;99.90;;;;;;5071007;28;20428;-70
2023/01/23 07:28:27;;;;;;;8.77;3.60;;;3.80;99.90;;;;;;5071076;28;20473;-72
2023/01/23 07:30:58;;;;;;;11.43;7.27;;;3.70;99.90;;;;;;5071201;28;20488;-72
2023/01/23 07:33:25;;;;;;;7.57;4.37;;;3.60;99.90;;;;;;5071178;28;20472;-70
2023/01/23 07:35:52;;;;;;;14.47;7.17;;;3.70;99.90;;;;;;5071011;28;20427;-70
2023/01/23 07:38:22;;;;;;;6.47;4.17;;;3.80;99.90;;;;;;5071066;28;20571;-70
2023/01/23 07:40:49;;;;;;;8.53;4.83;;;3.80;99.90;;;;;;5072635;28;20423;-71
2023/01/23 07:43:16;;;;;;;9.03;5.00;;;3.80;99.90;;;;;;5074954;28;20497;-71
2023/01/23 07:45:43;;;;;;;12.87;5.20;;;3.90;99.90;;;;;;5074887;28;20542;-71
2023/01/23 07:48:11;;;;;;;8.90;5.30;;;3.80;99.90;;;;;;5074604;28;20467;-71
2023/01/23 07:50:38;;;;;;;11.33;6.70;;;3.80;99.90;;;;;;5075485;28;20901;-71
2023/01/23 07:53:06;;;;;;;7.33;3.87;;;3.60;99.90;;;;;;5074412;28;20449;-71
2023/01/23 07:55:33;;;;;;;11.20;7.47;;;3.60;99.90;;;;;;5074471;28;20951;-70
2023/01/23 07:58:00;;;;;;;11.87;6.90;;;3.70;99.90;;;;;;5074785;28;20550;-71
2023/01/23 08:00:28;;;;;;;11.87;5.20;;;3.70;99.90;;;;;;5074477;28;20452;-71
2023/01/23 08:02:55;;;;;;;8.50;5.63;;;3.60;99.90;;;;;;5074573;28;20432;-70
2023/01/23 08:05:24;;;;;;;9.17;4.87;;;3.50;99.90;;;;;;5074257;28;20450;-70
2023/01/23 08:07:51;;;;;;;10.40;5.90;;;3.50;99.90;;;;;;5074608;28;20449;-71
2023/01/23 08:10:18;;;;;;;8.37;4.80;;;3.50;99.90;;;;;;5074894;28;20497;-70
2023/01/23 08:12:45;;;;;;;15.70;6.50;;;3.50;99.90;;;;;;5074439;28;20800;-71
2023/01/23 08:15:12;;;;;;;21.07;6.50;;;3.60;99.90;;;;;;5074468;28;20514;-71
2023/01/23 08:17:39;;;;;;;9.70;4.43;;;3.60;99.90;;;;;;5074170;28;21018;-71
2023/01/23 08:20:09;;;;;;;12.53;5.73;;;3.60;99.90;;;;;;5074477;28;20419;-71
2023/01/23 08:22:39;;;;;;;12.10;5.03;;;3.60;99.90;;;;;;5074608;28;20530;-71
2023/01/23 08:25:07;;;;;;;10.30;4.80;;;3.70;99.90;;;;;;5074086;28;20419;-71
2023/01/23 08:27:37;;;;;;;23.37;6.40;;;3.80;99.90;;;;;;5074198;28;20466;-71
2023/01/23 08:30:05;;;;;;;7.80;4.60;;;3.60;99.90;;;;;;5073867;28;20480;-71
2023/01/23 08:32:34;;;;;;;8.10;7.00;;;3.50;99.90;;;;;;5074096;28;20568;-71
2023/01/23 08:35:03;;;;;;;10.90;5.53;;;3.40;99.90;;;;;;5038787;28;20843;-71
2023/01/23 08:37:33;;;;;;;15.53;5.87;;;3.40;99.90;;;;;;5077473;28;20443;-71
2023/01/23 08:40:01;;;;;;;7.67;5.40;;;3.40;99.90;;;;;;5076129;28;20841;-71
2023/01/23 08:42:28;;;;;;;15.50;5.77;;;3.40;99.90;;;;;;5074842;28;20414;-71
2023/01/23 08:44:55;;;;;;;12.17;3.67;;;3.50;99.90;;;;;;5073774;28;20448;-71
2023/01/23 08:47:22;;;;;;;11.73;7.80;;;3.50;99.90;;;;;;5074157;28;20445;-71
2023/01/23 08:49:51;;;;;;;6.53;3.83;;;3.60;99.90;;;;;;5073980;28;20441;-71
2023/01/23 08:52:18;;;;;;;11.70;4.60;;;3.60;99.90;;;;;;5073462;28;20455;-71
2023/01/23 08:54:45;;;;;;;7.83;5.67;;;3.70;99.90;;;;;;5073730;28;20537;-71
2023/01/23 08:57:13;;;;;;;9.53;5.70;;;3.90;99.90;;;;;;5073910;28;20504;-71
2023/01/23 08:59:41;;;;;;;10.30;7.03;;;4.00;99.90;;;;;;5074550;28;20426;-71
2023/01/23 09:02:11;;;;;;;9.63;6.00;;;4.20;99.90;;;;;;5074347;28;20515;-71
2023/01/23 09:04:38;;;;;;;11.70;5.77;;;4.10;99.90;;;;;;5073615;28;20429;-71
2023/01/23 09:07:05;;;;;;;6.87;4.63;;;4.20;99.90;;;;;;5073752;28;20413;-71
2023/01/23 09:09:32;;;;;;;6.10;3.47;;;4.20;99.90;;;;;;5073570;28;20483;-71
2023/01/23 09:11:59;;;;;;;4.80;4.07;;;4.30;99.90;;;;;;5073280;28;21087;-72
2023/01/23 09:14:27;;;;;;;7.50;4.47;;;4.20;99.90;;;;;;5073328;28;20502;-71
2023/01/23 09:16:54;;;;;;;8.80;5.13;;;4.20;99.90;;;;;;5073113;28;20945;-71
2023/01/23 09:19:21;;;;;;;10.40;6.30;;;4.30;99.90;;;;;;5072748;28;21084;-71
2023/01/23 09:21:48;;;;;;;9.10;3.90;;;4.40;99.90;;;;;;5072846;28;20970;-71
2023/01/23 09:24:16;;;;;;;9.90;5.10;;;4.40;99.90;;;;;;5073540;28;20550;-71
2023/01/23 09:26:43;;;;;;;8.40;4.60;;;4.20;99.90;;;;;;5073161;28;20421;-71
2023/01/23 09:29:10;;;;;;;13.83;5.27;;;4.10;99.90;;;;;;5072996;28;20474;-71
2023/01/23 09:31:38;;;;;;;6.03;3.93;;;4.10;99.90;;;;;;5072862;28;20847;-71
2023/01/23 09:34:06;;;;;;;9.67;5.67;;;4.20;99.90;;;;;;5072830;28;20439;-71
2023/01/23 09:36:36;;;;;;;10.40;4.20;;;4.20;99.90;;;;;;5072931;28;20443;-72
2023/01/23 09:39:03;;;;;;;8.30;5.17;;;4.30;99.90;;;;;;5072882;28;20438;-71
2023/01/23 09:41:30;;;;;;;10.23;3.63;;;4.20;99.90;;;;;;5072781;28;20534;-71
2023/01/23 09:44:01;;;;;;;7.63;4.47;;;4.30;99.90;;;;;;5072602;28;20508;-70
2023/01/23 09:46:36;;;;;;;5.83;4.63;;;4.20;99.90;;;;;;5072737;28;20447;-71
2023/01/23 09:49:14;;;;;;;5.63;3.80;;;4.40;99.90;;;;;;5072514;28;20486;-70
2023/01/23 09:51:51;;;;;;;6.83;3.93;;;4.50;99.90;;;;;;5073218;28;20499;-70
2023/01/23 09:54:31;;;;;;;3.03;2.70;;;4.40;99.90;;;;;;5038771;28;20407;-70
2023/01/23 09:57:01;;;;;;;5.80;4.00;;;4.40;99.90;;;;;;5073520;28;20912;-71
2023/01/23 09:59:36;;;;;;;6.90;4.67;;;4.40;99.90;;;;;;5076349;28;20830;-71
2023/01/23 10:02:03;;;;;;;8.20;3.17;;;4.40;99.90;;;;;;5072694;28;20459;-71
2023/01/23 10:04:34;;;;;;;9.73;4.27;;;4.40;99.90;;;;;;5071897;28;20413;-71
2023/01/23 10:07:27;;;;;;;4.43;2.73;;;4.40;99.90;;;;;;5070831;28;20890;-71
2023/01/23 10:10:18;;;;;;;5.10;4.00;;;4.30;99.90;;;;;;5072418;28;20453;-72
2023/01/23 10:12:54;;;;;;;6.03;3.53;;;4.30;99.90;;;;;;5072215;28;20538;-71
2023/01/23 10:15:30;;;;;;;7.00;3.03;;;4.50;99.90;;;;;;5072211;28;20406;-71
2023/01/23 10:18:04;;;;;;;7.03;2.70;;;4.70;99.90;;;;;;5072114;28;20541;-71
2023/01/23 10:20:51;;;;;;;11.27;5.27;;;4.80;99.90;;;;;;5072321;28;20459;-71
2023/01/23 10:23:30;;;;;;;7.10;3.57;;;4.80;99.90;;;;;;5071351;28;20892;-71
2023/01/23 10:25:59;;;;;;;7.73;3.57;;;4.70;99.90;;;;;;5072253;28;20774;-71
2023/01/23 10:28:33;;;;;;;7.90;5.03;;;4.70;99.90;;;;;;5071547;28;20495;-71
2023/01/23 10:31:03;;;;;;;12.00;5.17;;;4.80;99.90;;;;;;5071947;28;20482;-72
2023/01/23 10:33:40;;;;;;;9.67;4.80;;;4.70;99.90;;;;;;5072292;28;20459;-71
2023/01/23 10:36:20;;;;;;;8.60;4.37;;;4.80;99.90;;;;;;5072007;28;20441;-72
2023/01/23 10:38:57;;;;;;;7.60;5.13;;;4.90;99.90;;;;;;5072298;28;20832;-71
2023/01/23 10:41:24;;;;;;;2.93;2.63;;;4.80;99.90;;;;;;5072016;28;20406;-72
2023/01/23 10:43:53;;;;;;;8.77;4.97;;;4.70;99.90;;;;;;5072651;28;20443;-71
2023/01/23 10:46:22;;;;;;;5.90;3.87;;;4.60;99.90;;;;;;5072196;28;20429;-71
2023/01/23 10:48:50;;;;;;;12.83;6.07;;;4.60;99.90;;;;;;5071623;28;20988;-71
2023/01/23 10:51:34;;;;;;;7.03;3.87;;;4.50;99.90;;;;;;5072492;28;20428;-71
2023/01/23 10:54:06;;;;;;;7.33;4.33;;;4.50;99.90;;;;;;5071904;28;20434;-71
2023/01/23 10:56:36;;;;;;;2.67;2.47;;;4.50;99.90;;;;;;5072474;28;20530;-71
2023/01/23 10:59:05;;;;;;;6.57;3.70;;;4.60;99.90;;;;;;5071704;28;20468;-72
2023/01/23 11:01:37;;;;;;;3.50;3.20;;;4.50;99.90;;;;;;5072023;28;20429;-72
2023/01/23 11:04:17;;;;;;;7.37;5.43;;;4.60;99.90;;;;;;5071761;28;20538;-71
2023/01/23 11:06:59;;;;;;;8.30;4.40;;;4.60;99.90;;;;;;5072482;28;20431;-72
2023/01/23 11:09:26;;;;;;;2.60;2.00;;;4.70;99.90;;;;;;5040517;28;20412;-73
2023/01/23 11:12:06;;;;;;;6.00;3.50;;;4.90;99.90;;;;;;5036273;28;20522;-71
2023/01/23 11:14:37;;;;;;;7.47;4.90;;;4.80;99.90;;;;;;5071981;28;20474;-71
2023/01/23 11:17:13;;;;;;;5.83;2.93;;;4.70;99.90;;;;;;5073215;28;20515;-72
2023/01/23 11:19:42;;;;;;;6.43;5.87;;;4.80;99.90;;;;;;5073997;28;20467;-72
2023/01/23 11:22:28;;;;;;;5.93;3.73;;;4.80;99.90;;;;;;5071164;28;20522;-72
2023/01/23 11:24:55;;;;;;;14.83;5.47;;;4.80;99.90;;;;;;5071480;28;20453;-72
2023/01/23 11:27:26;;;;;;;8.20;4.93;;;4.90;99.90;;;;;;5071273;28;20442;-71
2023/01/23 11:30:16;;;;;;;5.83;3.07;;;5.00;99.90;;;;;;5071469;28;20474;-71
2023/01/23 11:32:51;;;;;;;5.13;3.57;;;5.00;99.90;;;;;;5071122;28;20474;-71
2023/01/23 11:35:22;;;;;;;5.00;3.93;;;4.90;99.90;;;;;;5070858;28;20433;-71
2023/01/23 11:37:51;;;;;;;9.40;4.10;;;4.90;99.90;;;;;;5070982;28;20971;-71
2023/01/23 11:40:20;;;;;;;10.43;5.73;;;5.00;99.90;;;;;;5071793;28;20426;-71
2023/01/23 11:42:49;;;;;;;5.23;4.60;;;5.10;99.90;;;;;;5071640;28;20516;-71
2023/01/23 11:45:34;;;;;;;2.97;2.27;;;5.30;99.90;;;;;;5071257;28;20939;-71
2023/01/23 11:48:16;;;;;;;8.57;4.60;;;5.40;99.90;;;;;;5071711;28;20471;-71
2023/01/23 11:50:48;;;;;;;4.23;2.20;;;5.30;99.90;;;;;;5071294;28;20917;-71
2023/01/23 11:53:22;;;;;;;7.60;3.90;;;5.30;99.90;;;;;;5071060;28;20814;-71
2023/01/23 11:56:13;;;;;;;3.67;3.23;;;5.20;99.90;;;;;;5071642;28;20485;-71
2023/01/23 11:59:01;;;;;;;6.20;3.20;;;5.10;99.90;;;;;;5071338;28;20545;-71
2023/01/23 12:01:33;;;;;;;10.67;4.80;;;5.20;99.90;;;;;;5071228;28;20428;-71
2023/01/23 12:04:37;;;;;;;5.57;3.30;;;5.30;99.90;;;;;;5070951;28;20456;-71
2023/01/23 12:07:15;;;;;;;7.10;4.60;;;5.30;99.90;;;;;;5071443;28;20511;-71
2023/01/23 12:09:53;;;;;;;8.20;4.50;;;5.60;99.90;;;;;;5071208;28;20503;-71
2023/01/23 12:12:31;;;;;;;10.10;5.30;;;5.70;99.90;;;;;;5071497;28;21004;-70
2023/01/23 12:15:06;;;;;;;5.80;3.97;;;5.70;99.90;;;;;;5071542;28;20948;-70
2023/01/23 12:17:42;;;;;;;9.30;5.20;;;5.70;99.90;;;;;;5070948;28;21006;-71
2023/01/23 12:20:31;;;;;;;6.53;5.17;;;5.70;99.90;;;;;;5070938;28;20409;-71
2023/01/23 12:23:19;;;;;;;10.20;4.33;;;5.90;99.90;;;;;;5019514;28;20861;-71
2023/01/23 12:25:55;;;;;;;14.93;5.80;;;5.90;99.90;;;;;;5071731;28;20505;-70
2023/01/23 12:28:40;;;;;;;9.27;6.33;;;5.90;99.90;;;;;;5073696;28;20840;-71
2023/01/23 12:31:31;;;;;;;6.77;4.13;;;5.90;99.90;;;;;;5074619;28;20458;-71
2023/01/23 12:34:19;;;;;;;7.80;3.77;;;5.90;99.90;;;;;;5074961;28;20446;-70
2023/01/23 12:37:06;;;;;;;13.50;3.67;;;6.00;99.90;;;;;;5076377;28;20966;-71
2023/01/23 12:39:58;;;;;;;9.00;5.27;;;5.80;99.90;;;;;;5075619;28;20431;-71
2023/01/23 12:42:31;;;;;;;6.83;3.67;;;5.50;99.90;;;;;;5074214;28;20524;-70
2023/01/23 12:45:06;;;;;;;7.50;4.60;;;5.40;99.90;;;;;;5074896;28;20478;-71
2023/01/23 12:47:40;;;;;;;5.63;3.80;;;5.20;99.90;;;;;;5073907;28;21001;-71
2023/01/23 12:50:18;;;;;;;10.20;5.73;;;5.10;99.90;;;;;;5074655;28;20513;-70
2023/01/23 12:52:49;;;;;;;10.70;4.90;;;5.20;99.90;;;;;;5074174;28;20445;-71
2023/01/23 12:55:20;;;;;;;11.30;5.73;;;5.30;99.90;;;;;;5074205;28;20470;-70
2023/01/23 12:57:53;;;;;;;13.27;7.53;;;5.30;99.90;;;;;;5074180;28;20965;-71
2023/01/23 13:00:34;;;;;;;13.23;4.70;;;5.40;99.90;;;;;;5074658;28;20488;-71
2023/01/23 13:03:18;;;;;;;9.93;4.93;;;5.50;99.90;;;;;;5074261;28;20838;-71
2023/01/23 13:05:53;;;;;;;9.57;5.67;;;5.50;99.90;;;;;;5072388;28;20446;-71
2023/01/23 13:08:29;;;;;;;10.93;5.77;;;5.50;99.90;;;;;;5073738;28;20505;-71
2023/01/23 13:14:02;;;;;;;4.20;2.40;;;5.40;99.90;;;;;;5031699;28;20451;-70
2023/01/23 13:16:30;;;;;;;3.80;3.30;;;5.40;99.90;;;;;;5063696;28;20435;-71
2023/01/23 13:22:11;;;;;;;11.93;5.93;;;5.00;99.90;;;;;;5073693;28;20439;-71
2023/01/23 13:27:49;;;;;;;9.80;5.20;;;5.10;99.90;;;;;;5073826;28;20975;-71